createdAt,value
2023-05-02T00:01:03.529Z,16.88
2023-05-02T00:02:03.632Z,16.81
2023-05-02T00:03:04.347Z,16.81
2023-05-02T00:05:03.524Z,16.69
2023-05-02T00:06:04.118Z,16.62
2023-05-02T00:07:04.303Z,16.62
2023-05-02T00:08:03.848Z,16.56
2023-05-02T00:09:03.463Z,16.56
2023-05-02T00:10:03.697Z,16.44
2023-05-02T00:11:03.864Z,16.50
2023-05-02T00:13:04.249Z,16.44
2023-05-02T00:14:03.852Z,16.44
2023-05-02T00:15:04.256Z,16.44
2023-05-02T00:16:04.250Z,16.44
2023-05-02T00:17:03.885Z,16.44
2023-05-02T00:18:04.073Z,16.44
2023-05-02T00:20:04.271Z,16.44
2023-05-02T00:21:03.777Z,16.44
2023-05-02T00:23:03.943Z,16.31
2023-05-02T00:24:04.406Z,16.31
2023-05-02T00:25:04.482Z,16.25
2023-05-02T00:26:04.110Z,16.25
2023-05-02T00:28:04.172Z,16.19
2023-05-02T00:30:05.393Z,16.25
2023-05-02T00:31:04.242Z,16.19
2023-05-02T00:33:04.195Z,16.12
2023-05-02T00:34:03.927Z,16.06
2023-05-02T00:35:03.858Z,16.00
2023-05-02T00:36:03.918Z,16.00
2023-05-02T00:38:04.327Z,16.00
2023-05-02T00:39:03.841Z,16.00
2023-05-02T00:40:03.702Z,16.00
2023-05-02T00:42:04.317Z,15.94
2023-05-02T00:44:03.785Z,15.94
2023-05-02T00:45:04.508Z,15.88
2023-05-02T00:47:04.536Z,15.81
2023-05-02T00:48:04.280Z,15.75
2023-05-02T00:49:04.102Z,15.69
2023-05-02T00:50:03.571Z,15.69
2023-05-02T00:51:04.335Z,15.75
2023-05-02T00:52:04.360Z,15.75
2023-05-02T00:53:03.843Z,15.81
2023-05-02T00:55:03.716Z,16.12
2023-05-02T00:56:04.261Z,16.12
2023-05-02T00:57:03.865Z,16.19
2023-05-02T00:59:04.428Z,16.19
2023-05-02T01:00:03.931Z,16.19
2023-05-02T01:02:03.730Z,16.06
2023-05-02T01:03:04.555Z,16.00
2023-05-02T01:04:04.518Z,16.00
2023-05-02T01:05:04.169Z,16.00
2023-05-02T01:07:04.247Z,16.44
2023-05-02T01:08:03.858Z,16.50
2023-05-02T01:10:04.220Z,16.50
2023-05-02T01:11:03.713Z,16.50
2023-05-02T01:13:04.415Z,16.56
2023-05-02T01:14:03.520Z,16.44
2023-05-02T01:15:03.557Z,16.38
2023-05-02T01:16:04.106Z,16.50
2023-05-02T01:17:03.690Z,16.56
2023-05-02T01:18:03.745Z,16.69
2023-05-02T01:19:04.319Z,16.62
2023-05-02T01:21:03.530Z,16.50
2023-05-02T01:22:04.110Z,16.88
2023-05-02T01:23:03.699Z,16.81
2023-05-02T01:25:04.255Z,16.56
2023-05-02T01:26:03.851Z,16.56
2023-05-02T01:27:03.870Z,16.62
2023-05-02T01:30:04.251Z,16.50
2023-05-02T01:31:04.356Z,16.44
2023-05-02T01:32:03.969Z,16.44
2023-05-02T01:33:04.257Z,16.38
2023-05-02T01:34:04.419Z,16.38
2023-05-02T01:35:04.399Z,16.44
2023-05-02T01:36:04.409Z,16.38
2023-05-02T01:37:04.233Z,16.38
2023-05-02T01:38:04.243Z,16.38
2023-05-02T01:39:03.768Z,16.38
2023-05-02T01:41:04.243Z,16.31
2023-05-02T01:42:04.241Z,16.50
2023-05-02T01:43:03.762Z,16.62
2023-05-02T01:44:04.244Z,16.62
2023-05-02T01:45:04.253Z,16.75
2023-05-02T01:47:03.794Z,16.75
2023-05-02T01:48:03.631Z,16.69
2023-05-02T01:49:04.287Z,16.69
2023-05-02T01:50:04.329Z,16.69
2023-05-02T01:51:03.853Z,16.69
2023-05-02T01:53:04.325Z,16.69
2023-05-02T01:55:03.468Z,16.81
2023-05-02T01:57:04.006Z,16.62
2023-05-02T01:58:04.042Z,16.44
2023-05-02T01:59:04.433Z,16.44
2023-05-02T02:00:04.274Z,16.31
2023-05-02T02:01:05.826Z,16.38
2023-05-02T02:02:03.692Z,16.31
2023-05-02T02:03:03.678Z,16.12
2023-05-02T02:04:03.962Z,16.06
2023-05-02T02:06:03.787Z,15.88
2023-05-02T02:08:03.795Z,15.75
2023-05-02T02:09:04.401Z,15.69
2023-05-02T02:12:03.801Z,15.88
2023-05-02T02:14:04.166Z,15.81
2023-05-02T02:16:04.006Z,15.56
2023-05-02T02:17:04.052Z,15.56
2023-05-02T02:18:03.901Z,15.50
2023-05-02T02:19:04.430Z,15.56
2023-05-02T02:20:04.412Z,15.62
2023-05-02T02:22:04.010Z,15.50
2023-05-02T02:23:03.603Z,15.50
2023-05-02T02:25:03.868Z,15.50
2023-05-02T02:27:04.331Z,15.44
2023-05-02T02:30:04.137Z,15.50
2023-05-02T02:32:03.706Z,15.50
2023-05-02T02:33:03.617Z,15.56
2023-05-02T02:34:03.962Z,15.56
2023-05-02T02:35:04.419Z,15.56
2023-05-02T02:36:03.877Z,15.56
2023-05-02T02:37:03.721Z,15.50
2023-05-02T02:38:03.783Z,15.38
2023-05-02T02:40:03.852Z,15.19
2023-05-02T02:41:03.598Z,15.19
2023-05-02T02:42:04.117Z,15.12
2023-05-02T02:44:03.688Z,15.19
2023-05-02T02:45:04.170Z,15.19
2023-05-02T02:46:03.723Z,15.12
2023-05-02T02:48:04.292Z,15.12
2023-05-02T02:49:03.859Z,15.19
2023-05-02T02:51:04.333Z,15.25
2023-05-02T02:52:03.928Z,15.25
2023-05-02T02:54:09.967Z,15.31
2023-05-02T02:56:03.854Z,15.31
2023-05-02T02:57:03.935Z,15.19
2023-05-02T02:58:03.604Z,15.31
2023-05-02T02:59:03.854Z,15.25
2023-05-02T03:00:03.789Z,15.25
2023-05-02T03:02:04.271Z,15.19
2023-05-02T03:03:04.141Z,15.12
2023-05-02T03:04:04.317Z,15.31
2023-05-02T03:05:03.456Z,15.50
2023-05-02T03:06:04.047Z,15.81
2023-05-02T03:07:03.707Z,15.94
2023-05-02T03:08:04.348Z,15.94
2023-05-02T03:09:03.763Z,16.12
2023-05-02T03:10:03.787Z,16.31
2023-05-02T03:11:04.422Z,16.44
2023-05-02T03:13:04.510Z,16.50
2023-05-02T03:14:03.933Z,16.56
2023-05-02T03:15:03.695Z,16.62
2023-05-02T03:17:04.254Z,16.62
2023-05-02T03:18:03.837Z,16.50
2023-05-02T03:19:04.175Z,16.44
2023-05-02T03:20:04.081Z,16.50
2023-05-02T03:22:03.618Z,16.56
2023-05-02T03:24:04.372Z,16.56
2023-05-02T03:25:03.926Z,16.62
2023-05-02T03:26:04.482Z,16.69
2023-05-02T03:28:04.363Z,16.50
2023-05-02T03:30:04.406Z,16.38
2023-05-02T03:31:04.168Z,16.31
2023-05-02T03:32:04.414Z,16.31
2023-05-02T03:33:04.219Z,16.31
2023-05-02T03:34:03.999Z,16.19
2023-05-02T03:35:03.610Z,16.25
2023-05-02T03:36:04.080Z,16.50
2023-05-02T03:37:04.202Z,16.69
2023-05-02T03:39:04.321Z,16.44
2023-05-02T03:40:03.922Z,16.62
2023-05-02T03:41:03.772Z,16.75
2023-05-02T03:44:04.169Z,17.44
2023-05-02T03:45:04.162Z,17.62
2023-05-02T03:46:04.084Z,17.69
2023-05-02T03:48:03.900Z,18.00
2023-05-02T03:49:03.998Z,17.56
2023-05-02T03:51:03.675Z,18.00
2023-05-02T03:52:03.598Z,18.06
2023-05-02T03:54:04.239Z,18.69
2023-05-02T03:55:03.847Z,18.56
2023-05-02T03:56:04.402Z,18.50
2023-05-02T03:57:04.409Z,18.38
2023-05-02T03:58:03.853Z,18.12
2023-05-02T04:00:03.547Z,17.62
2023-05-02T04:01:04.515Z,17.31
2023-05-02T04:02:03.966Z,17.31
2023-05-02T04:03:03.828Z,17.06
2023-05-02T04:04:04.636Z,17.31
2023-05-02T04:05:04.181Z,17.50
2023-05-02T04:06:03.906Z,17.75
2023-05-02T04:07:04.481Z,17.50
2023-05-02T04:08:04.016Z,17.25
2023-05-02T04:10:03.741Z,17.00
2023-05-02T04:11:03.614Z,17.06
2023-05-02T04:12:03.521Z,17.12
2023-05-02T04:13:04.159Z,16.94
2023-05-02T04:14:03.681Z,17.00
2023-05-02T04:16:04.326Z,16.94
2023-05-02T04:17:04.062Z,16.88
2023-05-02T04:18:04.052Z,16.69
2023-05-02T04:19:03.781Z,16.88
2023-05-02T04:20:05.429Z,16.88
2023-05-02T04:22:04.476Z,17.25
2023-05-02T04:23:04.095Z,17.25
2023-05-02T04:24:03.526Z,17.12
2023-05-02T04:25:03.788Z,17.06
2023-05-02T04:26:03.699Z,16.94
2023-05-02T04:28:04.341Z,16.94
2023-05-02T04:29:03.850Z,17.25
2023-05-02T04:30:04.010Z,17.25
2023-05-02T04:31:03.800Z,17.19
2023-05-02T04:33:04.211Z,17.44
2023-05-02T04:35:03.533Z,17.81
2023-05-02T04:36:04.160Z,17.69
2023-05-02T04:37:04.252Z,17.56
2023-05-02T04:38:03.683Z,17.94
2023-05-02T04:40:04.327Z,18.00
2023-05-02T04:41:09.005Z,17.69
2023-05-02T04:42:03.524Z,17.81
2023-05-02T04:43:03.537Z,17.94
2023-05-02T04:44:04.240Z,18.06
2023-05-02T04:46:03.981Z,18.00
2023-05-02T04:47:04.020Z,17.88
2023-05-02T04:49:03.614Z,17.69
2023-05-02T04:51:04.270Z,17.62
2023-05-02T04:52:03.848Z,17.44
2023-05-02T04:54:04.319Z,17.31
2023-05-02T04:55:03.866Z,17.38
2023-05-02T04:56:03.594Z,17.38
2023-05-02T04:57:04.261Z,17.19
2023-05-02T04:58:03.849Z,17.12
2023-05-02T04:59:04.003Z,17.00
2023-05-02T05:00:03.845Z,17.00
2023-05-02T05:01:03.762Z,17.12
2023-05-02T05:02:05.436Z,17.06
2023-05-02T05:04:04.176Z,16.88
2023-05-02T05:06:04.338Z,17.12
2023-05-02T05:07:04.178Z,17.94
2023-05-02T05:08:03.712Z,17.94
2023-05-02T05:09:04.409Z,17.62
2023-05-02T05:11:03.850Z,17.50
2023-05-02T05:13:04.517Z,17.31
2023-05-02T05:14:04.412Z,17.19
2023-05-02T05:15:04.410Z,17.06
2023-05-02T05:16:03.958Z,17.44
2023-05-02T05:18:04.179Z,17.00
2023-05-02T05:19:04.240Z,17.06
2023-05-02T05:20:04.336Z,17.00
2023-05-02T05:22:04.486Z,17.31
2023-05-02T05:23:03.538Z,17.12
2023-05-02T05:24:04.085Z,17.06
2023-05-02T05:25:04.133Z,17.00
2023-05-02T05:26:03.850Z,16.94
2023-05-02T05:27:04.020Z,16.94
2023-05-02T05:28:04.100Z,17.50
2023-05-02T05:29:03.852Z,17.81
2023-05-02T05:31:03.670Z,17.62
2023-05-02T05:32:04.459Z,17.62
2023-05-02T05:33:04.103Z,17.56
2023-05-02T05:34:04.489Z,18.44
2023-05-02T05:35:03.831Z,18.69
2023-05-02T05:37:04.255Z,18.44
2023-05-02T05:38:04.250Z,18.56
2023-05-02T05:40:03.834Z,18.19
2023-05-02T05:41:03.948Z,18.25
2023-05-02T05:42:03.520Z,18.06
2023-05-02T05:43:03.999Z,17.88
2023-05-02T05:44:04.087Z,18.00
2023-05-02T05:46:03.773Z,18.00
2023-05-02T05:47:03.820Z,18.00
2023-05-02T05:48:03.865Z,17.88
2023-05-02T05:49:03.610Z,17.69
2023-05-02T05:50:03.813Z,17.69
2023-05-02T05:51:03.718Z,17.69
2023-05-02T05:52:04.110Z,17.62
2023-05-02T05:53:03.609Z,17.56
2023-05-02T05:54:04.349Z,17.50
2023-05-02T05:55:04.338Z,17.44
2023-05-02T05:56:04.330Z,17.44
2023-05-02T05:58:04.011Z,17.62
2023-05-02T05:59:04.025Z,17.69
2023-05-02T06:00:04.551Z,17.69
2023-05-02T06:01:04.346Z,17.88
2023-05-02T06:02:03.886Z,17.88
2023-05-02T06:04:04.358Z,18.19
2023-05-02T06:05:04.470Z,18.19
2023-05-02T06:06:04.391Z,18.00
2023-05-02T06:08:03.779Z,17.81
2023-05-02T06:09:04.349Z,18.25
2023-05-02T06:10:03.936Z,18.62
2023-05-02T06:12:04.164Z,18.38
2023-05-02T06:13:03.697Z,18.25
2023-05-02T06:14:03.621Z,18.19
2023-05-02T06:15:03.717Z,18.25
2023-05-02T06:16:04.368Z,18.19
2023-05-02T06:17:04.179Z,18.56
2023-05-02T06:18:03.898Z,18.50
2023-05-02T06:19:04.097Z,18.81
2023-05-02T06:20:03.801Z,18.88
2023-05-02T06:21:04.588Z,18.88
2023-05-02T06:23:04.025Z,19.12
2023-05-02T06:24:03.544Z,19.19
2023-05-02T06:25:04.167Z,19.12
2023-05-02T06:26:04.655Z,19.06
2023-05-02T06:27:03.634Z,19.19
2023-05-02T06:28:04.020Z,19.12
2023-05-02T06:29:03.651Z,19.12
2023-05-02T06:30:04.038Z,19.12
2023-05-02T06:31:04.015Z,19.06
2023-05-02T06:32:04.594Z,19.00
2023-05-02T06:33:04.203Z,19.00
2023-05-02T06:34:03.950Z,19.19
2023-05-02T06:35:04.416Z,19.12
2023-05-02T06:37:03.457Z,19.19
2023-05-02T06:38:03.780Z,18.88
2023-05-02T06:39:04.573Z,18.75
2023-05-02T06:41:04.431Z,18.50
2023-05-02T06:42:04.345Z,18.56
2023-05-02T06:43:03.575Z,18.75
2023-05-02T06:44:04.494Z,18.75
2023-05-02T06:45:04.504Z,18.94
2023-05-02T06:46:04.019Z,19.25
2023-05-02T06:47:03.722Z,18.88
2023-05-02T06:48:04.168Z,18.88
2023-05-02T06:50:03.937Z,18.94
2023-05-02T06:51:04.415Z,19.00
2023-05-02T06:52:04.177Z,19.25
2023-05-02T06:54:03.711Z,19.50
2023-05-02T06:55:03.784Z,19.38
2023-05-02T06:56:03.779Z,19.25
2023-05-02T06:57:03.696Z,19.12
2023-05-02T06:59:03.882Z,19.19
2023-05-02T07:00:03.812Z,19.50
2023-05-02T07:01:04.017Z,19.38
2023-05-02T07:02:05.259Z,19.38
2023-05-02T07:03:03.581Z,19.81
2023-05-02T07:04:04.003Z,20.06
2023-05-02T07:06:04.287Z,20.38
2023-05-02T07:07:03.692Z,20.56
2023-05-02T07:08:03.779Z,20.88
2023-05-02T07:09:03.799Z,20.94
2023-05-02T07:10:03.852Z,21.06
2023-05-02T07:11:04.422Z,20.88
2023-05-02T07:12:06.157Z,20.81
2023-05-02T07:14:04.422Z,20.38
2023-05-02T07:15:03.539Z,20.12
2023-05-02T07:16:04.240Z,20.06
2023-05-02T07:17:03.908Z,19.88
2023-05-02T07:19:04.360Z,19.50
2023-05-02T07:20:04.196Z,19.44
2023-05-02T07:23:04.414Z,19.38
2023-05-02T07:24:03.703Z,19.56
2023-05-02T07:25:03.872Z,19.75
2023-05-02T07:26:05.627Z,19.94
2023-05-02T07:29:04.411Z,20.19
2023-05-02T07:30:04.235Z,20.06
2023-05-02T07:31:03.858Z,20.00
2023-05-02T07:32:03.678Z,19.94
2023-05-02T07:33:04.277Z,20.06
2023-05-02T07:34:04.325Z,20.12
2023-05-02T07:35:04.090Z,20.62
2023-05-02T07:37:03.797Z,20.44
2023-05-02T07:38:04.420Z,20.44
2023-05-02T07:40:04.450Z,20.81
2023-05-02T07:41:03.705Z,20.56
2023-05-02T07:42:03.537Z,20.50
2023-05-02T07:44:04.257Z,20.50
2023-05-02T07:45:03.811Z,20.56
2023-05-02T07:47:03.547Z,20.81
2023-05-02T07:49:04.265Z,21.31
2023-05-02T07:51:05.060Z,21.25
2023-05-02T07:53:03.698Z,21.56
2023-05-02T07:54:04.370Z,21.75
2023-05-02T07:55:04.091Z,21.88
2023-05-02T07:56:04.180Z,21.94
2023-05-02T07:57:03.854Z,21.88
2023-05-02T07:58:04.177Z,21.75
2023-05-02T07:59:05.563Z,21.94
2023-05-02T08:00:04.636Z,22.12
2023-05-02T08:01:04.509Z,22.19
2023-05-02T08:03:03.732Z,22.25
2023-05-02T08:04:03.855Z,22.19
2023-05-02T08:05:03.732Z,22.31
2023-05-02T08:06:04.338Z,22.69
2023-05-02T08:08:03.783Z,22.81
2023-05-02T08:10:04.565Z,22.69
2023-05-02T08:11:03.542Z,22.75
2023-05-02T08:12:04.188Z,22.81
2023-05-02T08:14:03.620Z,22.88
2023-05-02T08:15:04.268Z,22.94
2023-05-02T08:16:03.905Z,23.12
2023-05-02T08:19:04.336Z,22.75
2023-05-02T08:21:03.774Z,22.62
2023-05-02T08:22:03.692Z,22.69
2023-05-02T08:23:03.547Z,22.81
2023-05-02T08:24:03.664Z,23.00
2023-05-02T08:25:04.329Z,23.00
2023-05-02T08:27:03.865Z,23.00
2023-05-02T08:28:04.415Z,23.12
2023-05-02T08:29:04.122Z,23.75
2023-05-02T08:30:03.942Z,24.12
2023-05-02T08:31:04.336Z,24.00
2023-05-02T08:33:04.284Z,23.56
2023-05-02T08:34:03.851Z,23.56
2023-05-02T08:35:04.037Z,23.62
2023-05-02T08:36:03.544Z,23.50
2023-05-02T08:37:03.541Z,23.44
2023-05-02T08:38:03.636Z,23.75
2023-05-02T08:39:04.254Z,23.81
2023-05-02T08:41:04.345Z,23.94
2023-05-02T08:42:04.264Z,24.00
2023-05-02T08:43:04.351Z,24.12
2023-05-02T08:44:03.769Z,24.06
2023-05-02T08:45:03.707Z,24.25
2023-05-02T08:46:03.607Z,24.38
2023-05-02T08:47:03.676Z,24.25
2023-05-02T08:48:04.391Z,24.50
2023-05-02T08:49:04.024Z,24.44
2023-05-02T08:50:03.820Z,24.31
2023-05-02T08:51:03.694Z,24.38
2023-05-02T08:52:03.535Z,24.44
2023-05-02T08:55:03.782Z,24.62
2023-05-02T08:56:04.060Z,24.19
2023-05-02T08:57:03.683Z,24.12
2023-05-02T08:58:03.827Z,23.94
2023-05-02T09:00:04.351Z,23.75
2023-05-02T09:01:04.436Z,24.00
2023-05-02T09:02:04.164Z,24.19
2023-05-02T09:03:04.263Z,24.50
2023-05-02T09:04:04.427Z,24.44
2023-05-02T09:05:04.091Z,24.56
2023-05-02T09:07:04.346Z,24.12
2023-05-02T09:08:03.866Z,24.56
2023-05-02T09:09:04.508Z,24.69
2023-05-02T09:10:04.302Z,25.00
2023-05-02T09:12:04.344Z,25.31
2023-05-02T09:13:03.851Z,25.38
2023-05-02T09:15:04.229Z,24.81
2023-05-02T09:16:03.629Z,24.88
2023-05-02T09:17:04.471Z,25.00
2023-05-02T09:19:03.548Z,24.81
2023-05-02T09:20:03.769Z,24.75
2023-05-02T09:21:04.323Z,24.62
2023-05-02T09:22:04.119Z,24.44
2023-05-02T09:23:04.093Z,24.19
2023-05-02T09:25:03.684Z,25.00
2023-05-02T09:26:03.767Z,25.12
2023-05-02T09:27:03.897Z,25.06
2023-05-02T09:28:03.779Z,25.00
2023-05-02T09:29:04.415Z,24.69
2023-05-02T09:30:04.492Z,24.44
2023-05-02T09:32:04.151Z,23.94
2023-05-02T09:33:03.856Z,24.19
2023-05-02T09:34:04.419Z,25.12
2023-05-02T09:35:04.061Z,25.31
2023-05-02T09:36:04.208Z,25.12
2023-05-02T09:37:03.884Z,24.81
2023-05-02T09:40:04.024Z,24.00
2023-05-02T09:42:03.570Z,23.69
2023-05-02T09:43:03.694Z,23.56
2023-05-02T09:44:03.622Z,23.69
2023-05-02T09:45:03.789Z,24.12
2023-05-02T09:46:03.807Z,24.12
2023-05-02T09:47:04.563Z,24.19
2023-05-02T09:49:04.399Z,24.12
2023-05-02T09:50:04.100Z,23.94
2023-05-02T09:51:03.628Z,23.88
2023-05-02T09:54:04.342Z,23.62
2023-05-02T09:55:03.937Z,23.44
2023-05-02T09:56:04.490Z,23.75
2023-05-02T09:57:04.114Z,23.81
2023-05-02T09:59:03.698Z,23.31
2023-05-02T10:00:04.288Z,23.31
2023-05-02T10:01:04.070Z,23.38
2023-05-02T10:02:03.736Z,23.56
2023-05-02T10:03:04.556Z,23.62
2023-05-02T10:05:04.597Z,24.06
2023-05-02T10:06:04.193Z,24.06
2023-05-02T10:07:03.767Z,23.94
2023-05-02T10:08:04.175Z,23.81
2023-05-02T10:10:03.787Z,23.69
2023-05-02T10:11:04.422Z,23.81
2023-05-02T10:12:04.010Z,23.75
2023-05-02T10:14:03.632Z,24.00
2023-05-02T10:15:04.197Z,24.31
2023-05-02T10:16:04.210Z,24.69
2023-05-02T10:17:04.336Z,24.44
2023-05-02T10:18:04.465Z,24.69
2023-05-02T10:19:03.611Z,25.06
2023-05-02T10:20:04.502Z,24.94
2023-05-02T10:22:04.993Z,24.12
2023-05-02T10:24:04.264Z,23.56
2023-05-02T10:26:04.246Z,23.06
2023-05-02T10:27:04.252Z,22.94
2023-05-02T10:29:03.766Z,22.75
2023-05-02T10:30:03.612Z,22.94
2023-05-02T10:31:04.522Z,23.12
2023-05-02T10:33:03.719Z,23.19
2023-05-02T10:34:03.733Z,23.25
2023-05-02T10:36:04.515Z,23.38
2023-05-02T10:38:04.123Z,23.31
2023-05-02T10:39:03.765Z,23.12
2023-05-02T10:40:03.788Z,23.25
2023-05-02T10:41:04.340Z,23.44
2023-05-02T10:44:03.522Z,24.00
2023-05-02T10:45:04.326Z,23.81
2023-05-02T10:46:04.325Z,23.75
2023-05-02T10:47:04.403Z,23.56
2023-05-02T10:49:04.283Z,23.31
2023-05-02T10:50:03.621Z,23.38
2023-05-02T10:51:03.704Z,23.44
2023-05-02T10:52:03.527Z,23.81
2023-05-02T10:54:04.168Z,24.25
2023-05-02T10:55:03.932Z,24.31
2023-05-02T10:56:03.525Z,24.12
2023-05-02T10:57:04.177Z,24.31
2023-05-02T10:58:03.935Z,24.88
2023-05-02T10:59:03.620Z,24.75
2023-05-02T11:01:04.194Z,24.31
2023-05-02T11:02:06.297Z,24.19
2023-05-02T11:03:03.936Z,24.12
2023-05-02T11:04:03.764Z,24.44
2023-05-02T11:05:04.694Z,24.44
2023-05-02T11:06:03.790Z,24.38
2023-05-02T11:07:03.785Z,24.38
2023-05-02T11:09:03.607Z,24.56
2023-05-02T11:12:03.684Z,24.56
2023-05-02T11:13:03.771Z,24.94
2023-05-02T11:15:04.135Z,25.06
2023-05-02T11:16:03.695Z,24.69
2023-05-02T11:17:03.890Z,24.50
2023-05-02T11:18:03.584Z,24.19
2023-05-02T11:19:04.255Z,24.19
2023-05-02T11:20:03.957Z,24.00
2023-05-02T11:21:03.858Z,23.75
2023-05-02T11:22:04.735Z,23.50
2023-05-02T11:23:04.333Z,23.44
2023-05-02T11:24:04.350Z,23.44
2023-05-02T11:26:03.527Z,23.94
2023-05-02T11:27:03.543Z,24.06
2023-05-02T11:28:03.602Z,23.88
2023-05-02T11:30:04.256Z,23.75
2023-05-02T11:32:03.610Z,23.25
2023-05-02T11:33:03.588Z,23.06
2023-05-02T11:34:04.538Z,23.31
2023-05-02T11:36:03.873Z,23.50
2023-05-02T11:37:03.939Z,23.44
2023-05-02T11:38:04.420Z,23.50
2023-05-02T11:40:03.928Z,23.69
2023-05-02T11:42:04.257Z,23.56
2023-05-02T11:43:03.925Z,23.62
2023-05-02T11:44:03.551Z,23.62
2023-05-02T11:45:04.548Z,23.50
2023-05-02T11:47:04.291Z,23.81
2023-05-02T11:48:03.777Z,23.94
2023-05-02T11:49:05.553Z,24.06
2023-05-02T11:50:03.625Z,24.06
2023-05-02T11:52:04.351Z,24.56
2023-05-02T11:53:03.979Z,24.50
2023-05-02T11:55:04.183Z,24.06
2023-05-02T11:56:04.227Z,23.88
2023-05-02T11:57:03.776Z,24.00
2023-05-02T11:59:03.677Z,24.12
2023-05-02T12:00:04.256Z,24.00
2023-05-02T12:01:03.852Z,24.00
2023-05-02T12:02:03.897Z,24.44
2023-05-02T12:03:04.025Z,24.56
2023-05-02T12:04:04.329Z,24.44
2023-05-02T12:05:04.781Z,24.38
2023-05-02T12:06:03.794Z,24.25
2023-05-02T12:07:03.899Z,24.25
2023-05-02T12:08:04.186Z,24.31
2023-05-02T12:09:03.927Z,24.25
2023-05-02T12:10:04.023Z,24.81
2023-05-02T12:11:04.028Z,24.75
2023-05-02T12:13:03.704Z,24.44
2023-05-02T12:15:04.423Z,24.25
2023-05-02T12:16:04.395Z,24.19
2023-05-02T12:17:03.853Z,24.50
2023-05-02T12:18:04.278Z,25.12
2023-05-02T12:20:03.655Z,25.69
2023-05-02T12:21:04.246Z,25.69
2023-05-02T12:22:04.269Z,25.69
2023-05-02T12:23:04.030Z,25.56
2023-05-02T12:24:03.647Z,25.62
2023-05-02T12:25:04.159Z,25.88
2023-05-02T12:26:03.538Z,26.00
2023-05-02T12:27:03.611Z,25.88
2023-05-02T12:28:04.105Z,26.00
2023-05-02T12:29:03.867Z,25.62
2023-05-02T12:30:04.287Z,25.62
2023-05-02T12:31:04.315Z,25.81
2023-05-02T12:32:04.158Z,26.00
2023-05-02T12:33:03.897Z,26.38
2023-05-02T12:34:03.571Z,26.44
2023-05-02T12:35:03.844Z,26.56
2023-05-02T12:37:04.329Z,26.38
2023-05-02T12:38:03.785Z,26.38
2023-05-02T12:39:03.851Z,26.38
2023-05-02T12:40:04.073Z,26.38
2023-05-02T12:41:04.169Z,26.44
2023-05-02T12:42:04.253Z,26.44
2023-05-02T12:44:03.797Z,26.75
2023-05-02T12:45:05.307Z,26.56
2023-05-02T12:46:03.866Z,26.44
2023-05-02T12:47:03.815Z,26.12
2023-05-02T12:48:03.764Z,26.69
2023-05-02T12:49:03.713Z,26.44
2023-05-02T12:50:04.574Z,25.94
2023-05-02T12:51:03.605Z,25.38
2023-05-02T12:52:04.188Z,24.69
2023-05-02T12:53:04.348Z,24.19
2023-05-02T12:54:03.954Z,23.88
2023-05-02T12:56:04.166Z,23.56
2023-05-02T12:57:03.863Z,23.06
2023-05-02T12:58:04.348Z,23.06
2023-05-02T13:00:03.861Z,22.50
2023-05-02T13:01:03.893Z,22.31
2023-05-02T13:02:03.812Z,22.25
2023-05-02T13:03:04.432Z,22.75
2023-05-02T13:05:03.616Z,22.94
2023-05-02T13:06:04.495Z,23.19
2023-05-02T13:07:04.103Z,23.00
2023-05-02T13:08:03.938Z,22.69
2023-05-02T13:09:04.329Z,22.56
2023-05-02T13:10:04.470Z,22.81
2023-05-02T13:11:04.385Z,22.81
2023-05-02T13:12:03.938Z,22.25
2023-05-02T13:13:04.427Z,23.19
2023-05-02T13:15:03.616Z,23.69
2023-05-02T13:16:04.531Z,23.25
2023-05-02T13:18:04.630Z,22.75
2023-05-02T13:19:03.686Z,22.62
2023-05-02T13:20:04.368Z,22.38
2023-05-02T13:22:03.688Z,22.75
2023-05-02T13:24:03.538Z,23.00
2023-05-02T13:25:04.092Z,22.62
2023-05-02T13:26:03.627Z,22.38
2023-05-02T13:28:04.192Z,22.56
2023-05-02T13:29:03.623Z,22.56
2023-05-02T13:30:06.611Z,22.62
2023-05-02T13:31:04.083Z,22.50
2023-05-02T13:32:03.651Z,22.38
2023-05-02T13:34:04.397Z,22.31
2023-05-02T13:35:04.402Z,22.19
2023-05-02T13:36:04.253Z,22.06
2023-05-02T13:37:03.685Z,22.06
2023-05-02T13:39:04.321Z,22.06
2023-05-02T13:40:04.544Z,22.19
2023-05-02T13:41:04.343Z,21.94
2023-05-02T13:42:05.328Z,21.94
2023-05-02T13:44:03.853Z,22.19
2023-05-02T13:45:04.326Z,22.12
2023-05-02T13:46:04.404Z,22.38
2023-05-02T13:47:04.158Z,22.81
2023-05-02T13:48:04.223Z,22.44
2023-05-02T13:49:03.933Z,22.00
2023-05-02T13:50:04.709Z,21.62
2023-05-02T13:52:04.305Z,21.38
2023-05-02T13:53:03.692Z,21.00
2023-05-02T13:54:04.482Z,20.94
2023-05-02T13:55:04.253Z,20.56
2023-05-02T13:56:03.857Z,20.44
2023-05-02T13:57:03.685Z,20.44
2023-05-02T13:58:03.691Z,20.12
2023-05-02T13:59:05.526Z,20.31
2023-05-02T14:00:04.532Z,21.12
2023-05-02T14:01:04.333Z,21.00
2023-05-02T14:02:04.489Z,21.00
2023-05-02T14:03:03.775Z,21.31
2023-05-02T14:04:03.837Z,21.00
2023-05-02T14:05:04.331Z,21.00
2023-05-02T14:06:03.662Z,21.69
2023-05-02T14:08:04.430Z,21.69
2023-05-02T14:09:04.027Z,22.19
2023-05-02T14:10:03.921Z,21.62
2023-05-02T14:11:05.222Z,21.81
2023-05-02T14:13:03.639Z,21.12
2023-05-02T14:14:04.091Z,20.81
2023-05-02T14:15:04.303Z,21.00
2023-05-02T14:17:04.236Z,21.00
2023-05-02T14:18:03.898Z,21.06
2023-05-02T14:19:03.934Z,21.06
2023-05-02T14:20:04.253Z,21.25
2023-05-02T14:21:04.294Z,21.12
2023-05-02T14:23:04.675Z,20.81
2023-05-02T14:24:04.097Z,20.81
2023-05-02T14:25:04.186Z,20.62
2023-05-02T14:27:04.405Z,20.38
2023-05-02T14:28:03.842Z,20.62
2023-05-02T14:29:03.986Z,20.62
2023-05-02T14:30:04.303Z,20.56
2023-05-02T14:31:03.754Z,20.50
2023-05-02T14:32:04.143Z,20.50
2023-05-02T14:33:03.808Z,20.56
2023-05-02T14:34:03.536Z,20.44
2023-05-02T14:35:04.000Z,20.25
2023-05-02T14:37:03.623Z,20.50
2023-05-02T14:38:04.246Z,20.25
2023-05-02T14:40:04.638Z,20.81
2023-05-02T14:42:04.464Z,20.56
2023-05-02T14:43:04.248Z,20.94
2023-05-02T14:44:04.492Z,20.88
2023-05-02T14:45:04.015Z,20.94
2023-05-02T14:46:04.099Z,21.12
2023-05-02T14:48:03.870Z,20.88
2023-05-02T14:49:03.693Z,21.00
2023-05-02T14:51:04.481Z,21.06
2023-05-02T14:54:04.168Z,21.25
2023-05-02T14:55:03.779Z,21.50
2023-05-02T14:56:03.862Z,21.44
2023-05-02T14:57:03.885Z,21.88
2023-05-02T14:58:04.104Z,21.75
2023-05-02T15:00:04.806Z,21.31
2023-05-02T15:01:04.067Z,20.94
2023-05-02T15:02:04.259Z,20.75
2023-05-02T15:03:06.656Z,20.56
2023-05-02T15:04:06.975Z,20.25
2023-05-02T15:05:04.390Z,19.94
2023-05-02T15:06:04.351Z,19.81
2023-05-02T15:07:04.589Z,20.19
2023-05-02T15:09:05.259Z,20.31
2023-05-02T15:10:04.240Z,20.31
2023-05-02T15:11:04.010Z,20.50
2023-05-02T15:13:03.690Z,20.62
2023-05-02T15:14:04.195Z,20.25
2023-05-02T15:15:03.964Z,19.94
2023-05-02T15:17:04.222Z,20.00
2023-05-02T15:18:04.034Z,20.00
2023-05-02T15:20:04.326Z,20.00
2023-05-02T15:21:03.839Z,20.06
2023-05-02T15:22:04.529Z,20.06
2023-05-02T15:24:04.090Z,19.88
2023-05-02T15:25:05.247Z,19.88
2023-05-02T15:27:03.922Z,20.62
2023-05-02T15:28:03.923Z,20.62
2023-05-02T15:29:04.011Z,20.62
2023-05-02T15:30:04.288Z,21.00
2023-05-02T15:31:04.208Z,20.88
2023-05-02T15:32:03.815Z,21.19
2023-05-02T15:33:04.128Z,21.44
2023-05-02T15:35:03.787Z,20.81
2023-05-02T15:36:04.419Z,20.62
2023-05-02T15:38:03.930Z,20.69
2023-05-02T15:39:03.999Z,20.62
2023-05-02T15:40:04.475Z,20.31
2023-05-02T15:41:03.695Z,19.88
2023-05-02T15:42:03.710Z,19.44
2023-05-02T15:43:04.369Z,19.31
2023-05-02T15:45:03.926Z,19.19
2023-05-02T15:46:04.537Z,19.25
2023-05-02T15:48:04.140Z,19.50
2023-05-02T15:49:03.866Z,19.75
2023-05-02T15:50:04.123Z,20.31
2023-05-02T15:51:03.769Z,20.44
2023-05-02T15:52:03.646Z,20.75
2023-05-02T15:53:03.706Z,21.00
2023-05-02T15:54:04.355Z,21.62
2023-05-02T15:55:04.242Z,22.00
2023-05-02T15:56:03.951Z,21.88
2023-05-02T15:57:04.088Z,22.06
2023-05-02T15:58:03.608Z,21.75
2023-05-02T15:59:03.762Z,21.12
2023-05-02T16:00:04.034Z,20.62
2023-05-02T16:01:03.929Z,20.31
2023-05-02T16:02:03.978Z,20.69
2023-05-02T16:04:04.089Z,20.50
2023-05-02T16:05:03.618Z,20.25
2023-05-02T16:06:04.923Z,20.00
2023-05-02T16:08:03.951Z,19.75
2023-05-02T16:09:04.331Z,19.75
2023-05-02T16:10:04.450Z,19.75
2023-05-02T16:11:03.946Z,19.88
2023-05-02T16:12:03.955Z,19.88
2023-05-02T16:13:04.318Z,20.38